createdAt,value
2019-06-20T00:01:09.078Z,58.50
2019-06-20T00:03:38.968Z,59.00
2019-06-20T00:06:08.815Z,58.90
2019-06-20T00:08:38.578Z,58.23
2019-06-20T00:11:08.518Z,59.53
2019-06-20T00:13:38.211Z,58.40
2019-06-20T00:16:07.917Z,59.17
2019-06-20T00:18:37.603Z,59.80
2019-06-20T00:21:07.475Z,58.43
2019-06-20T00:23:37.159Z,57.93
2019-06-20T00:26:07.011Z,58.37
2019-06-20T00:28:36.774Z,57.20
2019-06-20T00:31:06.642Z,58.30
2019-06-20T00:33:36.328Z,58.13
2019-06-20T00:36:06.188Z,58.57
2019-06-20T00:38:35.884Z,57.90
2019-06-20T00:41:05.651Z,58.37
2019-06-20T00:43:35.355Z,59.10
2019-06-20T00:46:05.345Z,57.63
2019-06-20T00:48:35.057Z,58.70
2019-06-20T00:51:04.853Z,60.10
2019-06-20T00:53:34.544Z,58.97
2019-06-20T00:56:06.151Z,58.37
2019-06-20T00:58:35.918Z,58.27
2019-06-20T01:01:06.056Z,57.67
2019-06-20T01:03:35.831Z,57.43
2019-06-20T01:06:05.715Z,58.27
2019-06-20T01:08:35.412Z,57.37
2019-06-20T01:11:05.107Z,58.60
2019-06-20T01:13:34.879Z,57.73
2019-06-20T01:16:05.719Z,58.40
2019-06-20T01:18:35.395Z,57.30
2019-06-20T01:21:05.246Z,57.77
2019-06-20T01:23:34.931Z,57.63
2019-06-20T01:26:04.900Z,57.40
2019-06-20T01:28:34.604Z,58.03
2019-06-20T01:31:04.451Z,57.70
2019-06-20T01:33:34.167Z,57.50
2019-06-20T01:36:04.062Z,57.63
2019-06-20T01:38:33.826Z,57.80
2019-06-20T01:41:06.189Z,58.70
2019-06-20T01:43:49.668Z,57.80
2019-06-20T01:46:06.554Z,58.30
2019-06-20T01:48:36.240Z,57.97
2019-06-20T01:51:06.094Z,57.83
2019-06-20T01:53:36.064Z,58.20
2019-06-20T01:56:05.759Z,58.87
2019-06-20T01:58:35.461Z,58.13
2019-06-20T02:01:05.500Z,58.23
2019-06-20T02:03:35.264Z,58.30
2019-06-20T02:06:05.311Z,58.13
2019-06-20T02:08:35.083Z,57.87
2019-06-20T02:11:04.931Z,57.47
2019-06-20T02:13:34.714Z,58.27
2019-06-20T02:16:06.257Z,58.03
2019-06-20T02:18:36.016Z,58.57
2019-06-20T02:21:06.910Z,58.97
2019-06-20T02:23:36.600Z,58.90
2019-06-20T02:26:06.555Z,59.20
2019-06-20T02:28:36.265Z,57.67
2019-06-20T02:31:06.139Z,57.97
2019-06-20T02:33:35.874Z,58.00
2019-06-20T02:36:05.571Z,58.13
2019-06-20T02:38:35.259Z,57.70
2019-06-20T02:41:05.264Z,57.77
2019-06-20T02:43:35.027Z,57.27
2019-06-20T02:46:05.373Z,58.03
2019-06-20T02:48:35.137Z,57.90
2019-06-20T02:51:05.109Z,58.37
2019-06-20T02:53:34.901Z,58.53
2019-06-20T02:56:04.756Z,57.53
2019-06-20T02:58:34.639Z,56.53
2019-06-20T03:01:04.768Z,58.27
2019-06-20T03:03:34.548Z,58.00
2019-06-20T03:06:04.689Z,57.70
2019-06-20T03:08:34.544Z,58.87
2019-06-20T03:11:04.331Z,59.27
2019-06-20T03:13:34.035Z,58.30
2019-06-20T03:16:04.074Z,64.27
2019-06-20T03:18:33.842Z,62.90
2019-06-20T03:21:03.598Z,60.70
2019-06-20T03:23:33.295Z,58.93
2019-06-20T03:26:03.248Z,58.47
2019-06-20T03:28:33.014Z,58.63
2019-06-20T03:31:02.906Z,58.00
2019-06-20T03:33:32.668Z,58.77
2019-06-20T03:36:03.270Z,60.53
2019-06-20T03:38:33.982Z,60.60
2019-06-20T03:41:04.531Z,62.50
2019-06-20T03:43:34.300Z,62.17
2019-06-20T03:46:04.063Z,62.40
2019-06-20T03:48:33.760Z,63.00
2019-06-20T03:51:03.789Z,61.37
2019-06-20T03:53:33.492Z,62.37
2019-06-20T03:56:03.187Z,60.77
2019-06-20T03:58:33.040Z,61.13
2019-06-20T04:01:02.771Z,59.43
2019-06-20T04:03:32.456Z,60.30
2019-06-20T04:06:02.149Z,60.60
2019-06-20T04:08:31.855Z,60.50
2019-06-20T04:11:01.617Z,62.00
2019-06-20T04:13:31.313Z,61.60
2019-06-20T04:16:01.129Z,59.90
2019-06-20T04:18:30.831Z,61.37
2019-06-20T04:21:00.519Z,61.47
2019-06-20T04:23:30.227Z,60.90
2019-06-20T04:25:59.987Z,61.87
2019-06-20T04:28:29.686Z,61.57
2019-06-20T04:30:59.590Z,61.80
2019-06-20T04:33:29.363Z,61.87
2019-06-20T04:35:59.057Z,61.07
2019-06-20T04:38:28.783Z,60.80
2019-06-20T04:40:58.544Z,61.03
2019-06-20T04:43:28.375Z,60.60
2019-06-20T04:46:27.685Z,62.60
2019-06-20T04:48:57.380Z,61.93
2019-06-20T04:51:27.139Z,61.90
2019-06-20T04:53:56.847Z,62.87
2019-06-20T04:56:26.559Z,62.13
2019-06-20T04:58:56.270Z,60.33
2019-06-20T05:01:26.003Z,61.97
2019-06-20T05:03:55.735Z,63.40
2019-06-20T05:06:25.547Z,62.13
2019-06-20T05:08:55.423Z,63.10
2019-06-20T05:11:25.092Z,63.00
2019-06-20T05:13:54.788Z,63.43
2019-06-20T05:16:24.475Z,63.27
2019-06-20T05:18:54.167Z,61.83
2019-06-20T05:21:23.863Z,62.80
2019-06-20T05:23:53.577Z,63.13
2019-06-20T05:26:23.331Z,63.23
2019-06-20T05:28:53.203Z,62.73
2019-06-20T05:31:22.903Z,62.50
2019-06-20T05:33:52.647Z,63.67
2019-06-20T05:36:22.398Z,63.17
2019-06-20T05:38:52.102Z,65.33
2019-06-20T05:41:21.777Z,63.03
2019-06-20T05:43:51.468Z,63.27
2019-06-20T05:46:21.159Z,62.07
2019-06-20T05:48:50.867Z,61.27
2019-06-20T05:51:20.555Z,62.90
2019-06-20T05:53:50.285Z,65.47
2019-06-20T05:56:19.984Z,66.93
2019-06-20T05:58:50.598Z,65.97
2019-06-20T06:01:21.476Z,65.13
2019-06-20T06:03:52.239Z,64.70
2019-06-20T06:06:22.007Z,62.93
2019-06-20T06:08:51.950Z,67.13
2019-06-20T06:11:21.763Z,65.83
2019-06-20T06:13:51.472Z,66.20
2019-06-20T06:16:26.917Z,67.20
2019-06-20T06:18:52.679Z,64.73
2019-06-20T06:21:22.397Z,67.87
2019-06-20T06:23:52.099Z,66.73
2019-06-20T06:26:21.789Z,67.53
2019-06-20T06:28:51.619Z,67.57
2019-06-20T06:31:21.323Z,69.83
2019-06-20T06:33:51.011Z,65.53
2019-06-20T06:36:20.802Z,67.87
2019-06-20T06:38:50.481Z,66.93
2019-06-20T06:41:20.258Z,68.20
2019-06-20T06:43:50.026Z,69.90
2019-06-20T06:46:19.811Z,67.80
2019-06-20T06:48:49.610Z,69.10
2019-06-20T06:51:19.463Z,67.40
2019-06-20T06:53:49.171Z,67.63
2019-06-20T06:56:18.873Z,69.93
2019-06-20T06:58:48.639Z,66.87
2019-06-20T07:01:18.355Z,70.20
2019-06-20T07:03:49.348Z,65.30
2019-06-20T07:06:19.186Z,68.63
2019-06-20T07:08:48.947Z,69.07
2019-06-20T07:11:18.720Z,65.50
2019-06-20T07:13:48.504Z,68.93
2019-06-20T07:16:18.334Z,70.40
2019-06-20T07:18:49.060Z,68.00
2019-06-20T07:21:18.807Z,67.90
2019-06-20T07:23:48.492Z,69.57
2019-06-20T07:26:18.268Z,70.53
2019-06-20T07:28:51.425Z,68.83
2019-06-20T07:31:19.559Z,66.77
2019-06-20T07:33:49.259Z,67.10
2019-06-20T07:36:19.031Z,65.83
2019-06-20T07:38:48.783Z,67.63
2019-06-20T07:41:18.507Z,64.87
2019-06-20T07:43:48.272Z,65.97
2019-06-20T07:46:18.052Z,66.87
2019-06-20T07:48:47.827Z,67.57
2019-06-20T07:51:17.571Z,65.77
2019-06-20T07:53:47.297Z,65.43
2019-06-20T07:56:17.010Z,67.40
2019-06-20T07:58:46.758Z,67.63
2019-06-20T08:01:16.522Z,63.27
2019-06-20T08:03:46.353Z,67.43
2019-06-20T08:06:16.130Z,64.47
2019-06-20T08:08:45.829Z,66.60
2019-06-20T08:11:15.699Z,66.77
2019-06-20T08:13:45.393Z,63.60
2019-06-20T08:16:15.085Z,63.97
2019-06-20T08:18:44.882Z,63.53
2019-06-20T08:21:14.921Z,63.17
2019-06-20T08:23:45.828Z,64.20
2019-06-20T08:26:15.527Z,65.27
2019-06-20T08:28:45.295Z,62.60
2019-06-20T08:31:15.055Z,65.73
2019-06-20T08:33:46.059Z,65.80
2019-06-20T08:36:15.852Z,64.57
2019-06-20T08:38:45.596Z,63.80
2019-06-20T08:41:15.372Z,64.60
2019-06-20T08:43:45.281Z,65.00
2019-06-20T08:46:15.129Z,66.67
2019-06-20T08:48:44.862Z,69.03
2019-06-20T08:51:14.873Z,68.10
2019-06-20T08:53:44.703Z,67.70
2019-06-20T08:56:14.476Z,73.73
2019-06-20T08:58:44.316Z,72.43
2019-06-20T09:01:14.012Z,72.20
2019-06-20T09:03:43.767Z,72.27
2019-06-20T09:06:13.625Z,71.27
2019-06-20T09:08:43.450Z,73.87
2019-06-20T09:11:13.331Z,74.00
2019-06-20T09:13:43.043Z,69.10
2019-06-20T09:16:24.117Z,71.17
2019-06-20T09:18:44.196Z,73.30
2019-06-20T09:21:14.047Z,65.47
2019-06-20T09:23:43.744Z,64.00
2019-06-20T09:26:13.508Z,64.33
2019-06-20T09:28:43.264Z,63.77
2019-06-20T09:31:13.349Z,63.97
2019-06-20T09:33:43.047Z,69.17
2019-06-20T09:36:12.817Z,66.27
2019-06-20T09:38:42.591Z,64.10
2019-06-20T09:41:12.352Z,64.90
2019-06-20T09:43:42.048Z,62.57
2019-06-20T09:46:11.891Z,66.47
2019-06-20T09:48:41.589Z,64.27
2019-06-20T09:51:11.272Z,68.23
2019-06-20T09:53:40.971Z,68.10
2019-06-20T09:56:10.737Z,64.90
2019-06-20T09:58:40.432Z,62.77
2019-06-20T10:01:10.119Z,63.20
2019-06-20T10:03:39.859Z,66.87
2019-06-20T10:06:13.749Z,64.60
2019-06-20T10:08:40.943Z,62.67
2019-06-20T10:11:10.623Z,66.03
2019-06-20T10:13:40.315Z,62.80
2019-06-20T10:16:10.086Z,64.30
2019-06-20T10:18:39.827Z,62.20
2019-06-20T10:21:09.585Z,64.03
2019-06-20T10:23:39.382Z,61.73
2019-06-20T10:26:09.307Z,62.07
2019-06-20T10:28:39.172Z,63.10
2019-06-20T10:31:08.992Z,61.83
2019-06-20T10:33:38.711Z,62.23
2019-06-20T10:36:08.569Z,61.50
2019-06-20T10:38:38.339Z,62.87
2019-06-20T10:41:08.107Z,63.20
2019-06-20T10:43:37.831Z,61.20
2019-06-20T10:46:07.665Z,62.73
2019-06-20T10:52:00.267Z,62.67
2019-06-20T10:57:42.877Z,62.27
2019-06-20T11:00:36.823Z,62.40
2019-06-20T11:06:18.784Z,63.70
2019-06-20T11:12:11.737Z,62.90
2019-06-20T11:18:16.452Z,63.90
2019-06-20T11:20:46.668Z,62.97
2019-06-20T11:23:16.434Z,62.90
2019-06-20T11:25:46.626Z,62.40
2019-06-20T11:28:16.423Z,64.60
2019-06-20T11:30:56.091Z,62.57
2019-06-20T11:33:17.708Z,64.10
2019-06-20T11:35:47.962Z,61.63
2019-06-20T11:38:17.816Z,63.73
2019-06-20T11:40:48.173Z,62.00
2019-06-20T11:43:18.033Z,62.40
2019-06-20T11:45:47.804Z,62.73
2019-06-20T11:48:17.583Z,62.10
2019-06-20T11:50:47.277Z,61.57
2019-06-20T11:53:17.052Z,62.43
2019-06-20T11:55:46.747Z,62.80
2019-06-20T11:58:16.431Z,61.37
2019-06-20T12:01:02.489Z,61.70
2019-06-20T12:03:17.812Z,62.33
2019-06-20T12:05:47.559Z,61.53
2019-06-20T12:08:17.331Z,62.30
2019-06-20T12:10:47.302Z,63.50
2019-06-20T12:13:17.278Z,62.43
2019-06-20T12:15:47.110Z,61.87
2019-06-20T12:18:16.812Z,62.87
2019-06-20T12:20:46.802Z,63.47
2019-06-20T12:23:16.732Z,63.87
2019-06-20T12:25:46.635Z,63.37
2019-06-20T12:28:16.546Z,62.70
2019-06-20T12:30:46.227Z,63.83
2019-06-20T12:33:15.959Z,62.30
2019-06-20T12:35:46.688Z,62.03
2019-06-20T12:38:16.735Z,62.13
2019-06-20T12:40:46.511Z,61.20
2019-06-20T12:43:16.219Z,62.37
2019-06-20T12:45:47.314Z,61.80
2019-06-20T12:48:17.172Z,63.77
2019-06-20T12:50:47.621Z,63.87
2019-06-20T12:53:17.549Z,62.67
2019-06-20T12:55:47.593Z,61.83
2019-06-20T12:58:17.463Z,61.33
2019-06-20T13:00:47.155Z,61.83
2019-06-20T13:03:16.918Z,63.07
2019-06-20T13:05:47.115Z,61.17
2019-06-20T13:08:17.119Z,61.40
2019-06-20T13:10:48.223Z,62.07
2019-06-20T13:13:18.166Z,62.33
2019-06-20T13:15:48.963Z,63.00
2019-06-20T13:18:18.866Z,62.57
2019-06-20T13:20:48.616Z,61.23
2019-06-20T13:23:18.308Z,60.90
2019-06-20T13:25:49.243Z,60.53
2019-06-20T13:28:18.964Z,60.97
2019-06-20T13:30:51.999Z,60.70
2019-06-20T13:33:20.175Z,60.47
2019-06-20T13:35:50.982Z,61.27
2019-06-20T13:38:20.786Z,61.43
2019-06-20T13:40:50.643Z,61.00
2019-06-20T13:43:20.388Z,59.80
2019-06-20T13:45:50.143Z,62.10
2019-06-20T13:48:19.847Z,61.87
2019-06-20T13:50:49.775Z,59.77
2019-06-20T13:53:19.769Z,61.60
2019-06-20T13:55:50.349Z,61.77
2019-06-20T13:58:20.276Z,62.63
2019-06-20T14:00:51.004Z,61.60
2019-06-20T14:03:21.068Z,62.63
2019-06-20T14:05:51.813Z,62.80
2019-06-20T14:08:21.765Z,63.33
2019-06-20T14:10:52.291Z,63.23
2019-06-20T14:13:22.194Z,62.47
2019-06-20T14:15:51.878Z,61.13
2019-06-20T14:18:21.566Z,63.00
2019-06-20T14:20:51.355Z,63.30
2019-06-20T14:23:21.055Z,61.87
2019-06-20T14:25:51.768Z,60.23
2019-06-20T14:28:21.757Z,62.13
2019-06-20T14:30:52.693Z,61.77
2019-06-20T14:33:22.427Z,63.23
2019-06-20T14:35:52.195Z,61.37
2019-06-20T14:38:21.892Z,63.63
2019-06-20T14:40:52.439Z,61.80
2019-06-20T14:43:22.390Z,61.70
2019-06-20T14:45:52.075Z,61.17
2019-06-20T14:48:22.751Z,62.17
2019-06-20T14:50:53.411Z,63.43
2019-06-20T14:53:23.367Z,61.87
2019-06-20T14:55:53.941Z,60.73
2019-06-20T14:58:23.889Z,62.37
2019-06-20T15:00:54.153Z,61.87
2019-06-20T15:03:24.139Z,62.40
2019-06-20T15:05:54.676Z,60.77
2019-06-20T15:08:24.649Z,63.40
2019-06-20T15:10:54.427Z,61.20
2019-06-20T15:13:24.119Z,61.90
2019-06-20T15:15:53.892Z,62.83
2019-06-20T15:18:23.579Z,61.20
2019-06-20T15:20:56.122Z,61.17
2019-06-20T15:23:24.744Z,61.93
2019-06-20T15:25:54.503Z,62.20
2019-06-20T15:28:24.196Z,60.67
2019-06-20T15:30:54.864Z,61.13
2019-06-20T15:33:24.559Z,61.47
2019-06-20T15:35:55.229Z,60.30
2019-06-20T15:38:25.653Z,59.33
2019-06-20T15:40:55.468Z,59.87
2019-06-20T15:43:25.387Z,59.77
2019-06-20T15:45:55.826Z,58.97
2019-06-20T15:48:26.699Z,60.00
2019-06-20T15:50:56.403Z,60.73
2019-06-20T15:53:26.187Z,60.10
2019-06-20T15:55:55.876Z,60.17
2019-06-20T15:58:25.572Z,59.40
2019-06-20T16:00:55.323Z,60.07
2019-06-20T16:03:25.989Z,59.90
2019-06-20T16:05:55.709Z,60.33
2019-06-20T16:08:25.428Z,60.83
2019-06-20T16:10:55.186Z,58.93
2019-06-20T16:13:24.892Z,60.53
2019-06-20T16:15:54.683Z,61.07
2019-06-20T16:18:24.366Z,59.17
2019-06-20T16:20:54.136Z,59.00
2019-06-20T16:23:23.823Z,59.60
2019-06-20T16:25:53.529Z,58.90
2019-06-20T16:28:23.210Z,59.83
2019-06-20T16:31:08.033Z,61.20
2019-06-20T16:33:25.742Z,59.47
2019-06-20T16:35:55.801Z,59.03
2019-06-20T16:38:25.507Z,58.73
2019-06-20T16:40:55.319Z,60.93
2019-06-20T16:43:25.203Z,60.53
2019-06-20T16:45:54.942Z,58.80
2019-06-20T16:48:24.705Z,60.27
2019-06-20T16:50:54.503Z,57.73
2019-06-20T16:53:24.377Z,58.50
2019-06-20T16:55:54.336Z,59.03
2019-06-20T16:58:24.152Z,60.80
2019-06-20T17:00:53.957Z,59.80
2019-06-20T17:03:23.749Z,62.57
2019-06-20T17:05:53.532Z,60.53
2019-06-20T17:08:23.227Z,58.30
2019-06-20T17:10:52.949Z,59.07
2019-06-20T17:13:22.747Z,58.90
2019-06-20T17:15:52.735Z,57.93
2019-06-20T17:18:22.606Z,57.77
2019-06-20T17:20:52.375Z,58.27
2019-06-20T17:23:22.144Z,58.53
2019-06-20T17:25:51.880Z,57.43
2019-06-20T17:28:21.576Z,58.43
2019-06-20T17:30:51.378Z,59.07
2019-06-20T17:33:21.135Z,59.57
2019-06-20T17:35:50.835Z,58.37
2019-06-20T17:38:20.549Z,59.40
2019-06-20T17:40:50.328Z,58.13
2019-06-20T17:43:20.019Z,57.43
2019-06-20T17:45:49.831Z,56.73
2019-06-20T17:48:19.535Z,58.70
2019-06-20T17:50:49.256Z,58.03
2019-06-20T17:53:18.935Z,57.83
2019-06-20T17:55:48.739Z,58.13
2019-06-20T17:58:18.423Z,57.57
2019-06-20T18:00:48.195Z,56.60
2019-06-20T18:03:17.958Z,57.10
2019-06-20T18:05:47.672Z,57.33
2019-06-20T18:08:17.508Z,57.30
2019-06-20T18:10:47.385Z,59.10
2019-06-20T18:13:17.162Z,57.60
2019-06-20T18:15:46.875Z,58.53
2019-06-20T18:18:16.656Z,59.27
2019-06-20T18:20:46.450Z,57.40
2019-06-20T18:23:16.284Z,58.57
2019-06-20T18:25:46.008Z,57.13
2019-06-20T18:28:15.777Z,57.37
2019-06-20T18:30:46.316Z,57.67
2019-06-20T18:33:16.087Z,57.37
2019-06-20T18:35:46.247Z,57.30
2019-06-20T18:38:15.939Z,57.50
2019-06-20T18:40:46.291Z,58.27
2019-06-20T18:43:16.091Z,58.10
2019-06-20T18:45:45.967Z,58.93
2019-06-20T18:48:15.672Z,57.63
2019-06-20T18:50:45.471Z,57.17
2019-06-20T18:53:15.179Z,58.47
2019-06-20T18:55:45.031Z,58.43
2019-06-20T18:58:14.812Z,59.37
2019-06-20T19:00:44.804Z,57.97
2019-06-20T19:03:14.680Z,59.13
2019-06-20T19:05:44.541Z,58.77
2019-06-20T19:08:14.351Z,59.30
2019-06-20T19:10:44.070Z,58.43
2019-06-20T19:13:13.946Z,58.27
2019-06-20T19:15:43.740Z,58.67
2019-06-20T19:18:13.423Z,57.50
2019-06-20T19:20:43.285Z,59.40
2019-06-20T19:23:13.028Z,59.80
2019-06-20T19:25:42.884Z,57.83
2019-06-20T19:28:12.571Z,58.13
2019-06-20T19:30:50.294Z,58.47
2019-06-20T19:33:20.448Z,59.07
2019-06-20T19:35:50.300Z,60.17
2019-06-20T19:38:20.064Z,57.57
2019-06-20T19:40:50.474Z,58.63
2019-06-20T19:43:20.375Z,58.30
2019-06-20T19:45:50.274Z,58.87
2019-06-20T19:48:20.142Z,59.80
2019-06-20T19:50:50.085Z,58.07
2019-06-20T19:53:20.685Z,58.20
2019-06-20T19:55:50.638Z,58.93
2019-06-20T19:58:20.418Z,59.40
2019-06-20T20:00:50.192Z,58.13
2019-06-20T20:03:20.139Z,59.17
2019-06-20T20:05:50.087Z,58.80
2019-06-20T20:08:20.177Z,58.93
2019-06-20T20:10:50.742Z,62.03
2019-06-20T20:13:20.583Z,60.57
2019-06-20T20:15:50.410Z,58.03
2019-06-20T20:18:20.264Z,58.53
2019-06-20T20:20:51.167Z,59.07
2019-06-20T20:23:20.943Z,60.17
2019-06-20T20:25:50.784Z,58.83
2019-06-20T20:28:20.485Z,59.03
2019-06-20T20:30:53.424Z,59.60
2019-06-20T20:33:21.659Z,58.93
2019-06-20T20:35:51.350Z,59.33
2019-06-20T20:38:21.054Z,59.50
2019-06-20T20:40:50.895Z,59.37
2019-06-20T20:43:20.645Z,58.87
2019-06-20T20:45:50.477Z,59.10
2019-06-20T20:48:20.507Z,59.63
2019-06-20T20:50:50.213Z,58.70
2019-06-20T20:53:19.898Z,59.17
2019-06-20T20:55:49.612Z,59.47
2019-06-20T20:58:19.316Z,58.67
2019-06-20T21:00:59.278Z,59.57
2019-06-20T21:03:29.060Z,59.03
2019-06-20T21:05:58.747Z,58.50
2019-06-20T21:08:28.572Z,58.87
2019-06-20T21:10:58.842Z,59.17
2019-06-20T21:13:28.627Z,58.63
2019-06-20T21:15:58.319Z,59.20
2019-06-20T21:18:28.095Z,59.43
2019-06-20T21:20:57.787Z,59.40
2019-06-20T21:23:27.491Z,58.53
2019-06-20T21:25:57.198Z,59.13
2019-06-20T21:28:26.909Z,59.17
2019-06-20T21:30:56.595Z,59.40
2019-06-20T21:33:26.295Z,58.93
2019-06-20T21:36:08.082Z,59.00
2019-06-20T21:38:27.540Z,58.37
2019-06-20T21:40:57.384Z,58.93
2019-06-20T21:43:27.086Z,58.90
2019-06-20T21:45:56.754Z,58.53
2019-06-20T21:48:26.449Z,58.77
2019-06-20T21:50:56.203Z,59.37
2019-06-20T21:53:25.987Z,58.90
2019-06-20T21:55:55.782Z,59.90
2019-06-20T21:58:25.490Z,58.80
2019-06-20T22:00:58.447Z,57.97
2019-06-20T22:03:29.868Z,60.30
2019-06-20T22:05:59.586Z,61.60
2019-06-20T22:08:29.275Z,59.83
2019-06-20T22:10:59.116Z,58.30
2019-06-20T22:13:28.899Z,60.20
2019-06-20T22:15:58.595Z,59.00
2019-06-20T22:18:28.375Z,59.67
2019-06-20T22:20:58.141Z,58.53
2019-06-20T22:23:27.907Z,58.33
2019-06-20T22:25:57.740Z,60.50
2019-06-20T22:28:27.439Z,58.80
2019-06-20T22:30:57.276Z,58.60
2019-06-20T22:33:27.054Z,59.70
2019-06-20T22:35:56.743Z,57.63
2019-06-20T22:38:26.432Z,56.90
2019-06-20T22:40:56.272Z,57.37
2019-06-20T22:43:26.046Z,58.20
2019-06-20T22:45:55.743Z,57.20
2019-06-20T22:48:25.427Z,57.63
2019-06-20T22:50:55.291Z,58.20
2019-06-20T22:53:25.119Z,58.77
2019-06-20T22:55:54.900Z,57.40
2019-06-20T22:58:24.606Z,57.77
2019-06-20T23:00:54.363Z,57.80
2019-06-20T23:03:24.238Z,57.87
2019-06-20T23:05:54.343Z,57.93
2019-06-20T23:08:24.054Z,57.70
2019-06-20T23:10:53.732Z,58.27
2019-06-20T23:13:23.433Z,60.60
2019-06-20T23:15:53.111Z,58.13
2019-06-20T23:18:22.816Z,58.50
2019-06-20T23:21:04.498Z,57.17
2019-06-20T23:23:25.511Z,57.83
2019-06-20T23:25:57.085Z,57.37
2019-06-20T23:28:26.847Z,57.80
2019-06-20T23:30:56.616Z,58.17
2019-06-20T23:33:28.659Z,57.67
2019-06-20T23:35:58.512Z,58.30
2019-06-20T23:38:28.202Z,58.17
2019-06-20T23:40:57.891Z,59.00
2019-06-20T23:43:27.593Z,57.43
2019-06-20T23:45:57.290Z,56.90
2019-06-20T23:48:27.012Z,57.33
2019-06-20T23:50:56.746Z,58.07
2019-06-20T23:53:27.375Z,57.10
2019-06-20T23:55:57.064Z,57.07
2019-06-20T23:58:27.096Z,57.03
